Aviation Digital Data Service (ADDS)

Output produced by METARs form (2108 UTC 22 May 2018)
found at http://aviationweather.gov/adds/metars/
 
METAR text: KRNT 222053Z 31008KT 10SM CLR 23/11 A2988 RMK AO2 SLP124 T02330111 58018
Conditions at: KRNT (RENTON , WA, US) observed 2053 UTC 22 May 2018
Temperature: 23.3°C (74°F)
Dewpoint: 11.1°C (52°F) [RH = 46%]
Pressure (altimeter): 29.88 inches Hg (1011.9 mb)
[Sea-level pressure: 1012.4 mb]
Winds: from the NW (310 degrees) at 9 MPH (8 knots; 4.2 m/s)
Visibility: 10 or more miles (16+ km)
Ceiling: at least 12,000 feet AGL
Clouds: sky clear below 12,000 feet AGL
Weather: no significant weather observed at this time

METAR text: KRNT 221953Z 30009KT 10SM CLR 22/12 A2990 RMK AO2 SLP130 T02170117
Conditions at: KRNT (RENTON , WA, US) observed 1953 UTC 22 May 2018
Temperature: 21.7°C (71°F)
Dewpoint: 11.7°C (53°F) [RH = 53%]
Pressure (altimeter): 29.90 inches Hg (1012.6 mb)
[Sea-level pressure: 1013.0 mb]
Winds: from the WNW (300 degrees) at 10 MPH (9 knots; 4.7 m/s)
Visibility: 10 or more miles (16+ km)
Ceiling: at least 12,000 feet AGL
Clouds: sky clear below 12,000 feet AGL
Weather: no significant weather observed at this time